createdAt,value
2019-04-05T00:00:15.127Z,56.67
2019-04-05T00:02:43.571Z,56.62
2019-04-05T00:05:12.446Z,56.86
2019-04-05T00:07:40.910Z,56.31
2019-04-05T00:10:10.411Z,56.53
2019-04-05T00:12:38.861Z,56.71
2019-04-05T00:15:15.026Z,56.40
2019-04-05T00:17:37.734Z,56.64
2019-04-05T00:20:08.375Z,57.02
2019-04-05T00:22:36.858Z,56.99
2019-04-05T00:25:06.638Z,56.93
2019-04-05T00:27:35.080Z,57.36
2019-04-05T00:30:04.519Z,57.54
2019-04-05T00:32:32.985Z,57.21
2019-04-05T00:35:01.455Z,58.08
2019-04-05T00:37:29.900Z,58.08
2019-04-05T00:39:58.327Z,58.00
2019-04-05T00:42:26.806Z,58.22
2019-04-05T00:44:55.272Z,57.96
2019-04-05T00:47:23.706Z,58.17
2019-04-05T00:49:52.177Z,59.35
2019-04-05T00:52:20.627Z,59.15
2019-04-05T00:54:49.117Z,59.61
2019-04-05T00:57:17.577Z,59.14
2019-04-05T00:59:46.057Z,59.56
2019-04-05T01:02:14.523Z,59.61
2019-04-05T01:04:42.972Z,59.58
2019-04-05T01:07:11.482Z,60.34
2019-04-05T01:09:39.954Z,60.35
2019-04-05T01:12:08.441Z,60.31
2019-04-05T01:14:38.014Z,60.40
2019-04-05T01:17:06.465Z,60.44
2019-04-05T01:19:35.507Z,60.79
2019-04-05T01:22:05.833Z,60.29
2019-04-05T01:24:34.632Z,59.78
2019-04-05T01:27:05.133Z,59.72
2019-04-05T01:29:33.625Z,59.63
2019-04-05T01:32:02.084Z,60.13
2019-04-05T01:34:30.619Z,61.70
2019-04-05T01:36:59.401Z,61.70
2019-04-05T01:39:27.831Z,61.07
2019-04-05T01:41:56.531Z,60.61
2019-04-05T01:44:25.670Z,60.11
2019-04-05T01:46:54.093Z,60.92
2019-04-05T01:49:22.548Z,60.40
2019-04-05T01:51:51.000Z,60.26
2019-04-05T01:54:19.481Z,59.67
2019-04-05T01:56:48.709Z,59.67
2019-04-05T01:59:17.176Z,59.90
2019-04-05T02:01:45.691Z,59.78
2019-04-05T02:04:14.133Z,59.61
2019-04-05T02:06:43.240Z,59.71
2019-04-05T02:09:12.441Z,59.84
2019-04-05T02:11:40.964Z,59.84
2019-04-05T02:14:09.476Z,59.64
2019-04-05T02:16:37.949Z,59.72
2019-04-05T02:19:06.485Z,59.87
2019-04-05T02:21:34.945Z,60.32
2019-04-05T02:24:03.418Z,60.32
2019-04-05T02:26:31.868Z,60.55
2019-04-05T02:29:00.340Z,60.00
2019-04-05T02:31:28.775Z,59.97
2019-04-05T02:33:57.309Z,60.07
2019-04-05T02:36:25.792Z,60.67
2019-04-05T02:38:54.214Z,60.67
2019-04-05T02:41:25.717Z,61.01
2019-04-05T02:43:56.081Z,60.89
2019-04-05T02:46:26.347Z,61.12
2019-04-05T02:48:55.950Z,61.24
2019-04-05T02:51:26.089Z,61.24
2019-04-05T02:53:57.451Z,61.82
2019-04-05T02:56:27.801Z,61.82
2019-04-05T02:58:56.501Z,61.50
2019-04-05T03:01:25.199Z,61.82
2019-04-05T03:03:53.674Z,61.73
2019-04-05T03:06:22.332Z,61.26
2019-04-05T03:08:51.756Z,62.21
2019-04-05T03:11:22.308Z,62.21
2019-04-05T03:13:54.188Z,61.93
2019-04-05T03:16:40.095Z,62.13
2019-04-05T03:19:08.093Z,61.96
2019-04-05T03:21:39.607Z,62.12
2019-04-05T03:24:10.332Z,62.01
2019-04-05T03:26:41.832Z,61.95
2019-04-05T03:29:10.944Z,62.19
2019-04-05T03:31:39.733Z,62.55
2019-04-05T03:34:08.931Z,62.68
2019-04-05T03:36:38.394Z,63.20
2019-04-05T03:39:07.466Z,62.80
2019-04-05T03:41:36.678Z,63.12
2019-04-05T03:44:06.265Z,63.12
2019-04-05T03:46:34.808Z,63.34
2019-04-05T03:49:05.001Z,62.92
2019-04-05T03:51:33.993Z,63.38
2019-04-05T03:54:02.714Z,63.35
2019-04-05T03:56:31.722Z,64.05
2019-04-05T03:59:00.330Z,63.67
2019-04-05T04:01:28.863Z,64.53
2019-04-05T04:03:57.489Z,64.73
2019-04-05T04:06:25.951Z,64.89
2019-04-05T04:08:54.448Z,64.88
2019-04-05T04:11:22.887Z,65.62
2019-04-05T04:13:51.492Z,65.35
2019-04-05T04:16:20.186Z,65.08
2019-04-05T04:18:49.390Z,65.08
2019-04-05T04:21:29.689Z,64.94
2019-04-05T04:23:58.591Z,64.83
2019-04-05T04:26:27.295Z,65.28
2019-04-05T04:28:55.811Z,64.45
2019-04-05T04:31:24.638Z,65.25
2019-04-05T04:33:53.671Z,65.85
2019-04-05T04:36:22.379Z,65.94
2019-04-05T04:38:51.316Z,65.56
2019-04-05T04:41:19.803Z,65.81
2019-04-05T04:43:48.698Z,66.41
2019-04-05T04:46:17.233Z,66.89
2019-04-05T04:48:45.743Z,67.29
2019-04-05T04:51:14.541Z,66.97
2019-04-05T04:53:43.662Z,67.16
2019-04-05T04:56:12.301Z,66.81
2019-04-05T04:58:40.762Z,67.20
2019-04-05T05:01:09.565Z,67.15
2019-04-05T05:03:38.379Z,67.32
2019-04-05T05:06:07.534Z,67.64
2019-04-05T05:08:36.057Z,67.83
2019-04-05T05:11:14.494Z,67.69
2019-04-05T05:13:35.431Z,67.58
2019-04-05T05:16:04.101Z,67.58
2019-04-05T05:18:32.719Z,67.21
2019-04-05T05:21:01.357Z,67.48
2019-04-05T05:23:30.075Z,67.51
2019-04-05T05:25:58.984Z,67.14
2019-04-05T05:28:27.483Z,67.72
2019-04-05T05:30:56.309Z,67.26
2019-04-05T05:33:24.906Z,66.81
2019-04-05T05:35:53.353Z,66.81
2019-04-05T05:38:21.923Z,66.32
2019-04-05T05:40:50.378Z,66.17
2019-04-05T05:43:18.879Z,65.99
2019-04-05T05:45:47.353Z,65.31
2019-04-05T05:48:16.549Z,64.85
2019-04-05T05:50:45.088Z,64.27
2019-04-05T05:53:13.823Z,64.14
2019-04-05T05:55:42.283Z,63.71
2019-04-05T05:58:10.767Z,63.86
2019-04-05T06:00:39.287Z,63.89
2019-04-05T06:03:10.807Z,62.66
2019-04-05T06:05:37.918Z,62.23
2019-04-05T06:08:06.399Z,61.71
2019-04-05T06:10:34.841Z,61.71
2019-04-05T06:13:06.664Z,62.88
2019-04-05T06:15:33.497Z,62.88
2019-04-05T06:18:04.781Z,62.37
2019-04-05T06:20:32.127Z,62.87
2019-04-05T06:23:00.601Z,64.24
2019-04-05T06:25:29.054Z,64.24
2019-04-05T06:27:59.807Z,64.46
2019-04-05T06:32:57.949Z,67.06
2019-04-05T06:35:26.405Z,66.98
2019-04-05T06:35:39.483Z,65.08
2019-04-05T06:37:54.854Z,67.08
2019-04-05T06:40:23.335Z,68.25
2019-04-05T06:42:51.809Z,68.25
2019-04-05T06:45:20.293Z,70.37
2019-04-05T06:47:48.773Z,70.37
2019-04-05T06:50:17.354Z,70.46
2019-04-05T06:52:45.840Z,73.02
2019-04-05T06:55:14.293Z,73.02
2019-04-05T06:57:42.772Z,73.65
2019-04-05T07:00:11.267Z,73.44
2019-04-05T07:02:39.740Z,72.61
2019-04-05T07:05:08.541Z,72.61
2019-04-05T07:07:37.025Z,73.44
2019-04-05T07:10:06.238Z,74.26
2019-04-05T07:12:34.709Z,75.91
2019-04-05T07:15:03.363Z,75.91
2019-04-05T07:17:31.847Z,75.31
2019-04-05T07:20:00.391Z,75.20
2019-04-05T07:22:38.463Z,76.13
2019-04-05T07:24:59.033Z,76.33
2019-04-05T07:27:27.558Z,77.00
2019-04-05T07:29:56.049Z,76.40
2019-04-05T07:32:24.507Z,76.47
2019-04-05T07:34:52.952Z,76.47
2019-04-05T07:37:21.407Z,78.23
2019-04-05T07:39:49.902Z,78.47
2019-04-05T07:42:18.390Z,78.87
2019-04-05T07:44:46.846Z,78.25
2019-04-05T07:47:15.318Z,78.50
2019-04-05T07:49:43.789Z,80.77
2019-04-05T07:52:13.182Z,79.57
2019-04-05T07:54:41.701Z,79.38
2019-04-05T07:57:10.240Z,79.05
2019-04-05T07:59:38.671Z,77.63
2019-04-05T08:02:07.131Z,77.16
2019-04-05T08:04:35.584Z,77.81
2019-04-05T08:07:05.595Z,77.46
2019-04-05T08:09:36.880Z,77.21
2019-04-05T08:12:06.153Z,76.70
2019-04-05T08:14:37.323Z,76.72
2019-04-05T08:17:05.787Z,77.33
2019-04-05T08:19:34.226Z,77.80
2019-04-05T08:22:02.713Z,77.80
2019-04-05T08:24:31.170Z,76.63
2019-04-05T08:26:59.626Z,77.56
2019-04-05T08:29:28.093Z,76.98
2019-04-05T08:31:56.531Z,77.28
2019-04-05T08:34:24.983Z,76.88
2019-04-05T08:36:53.449Z,75.47
2019-04-05T08:39:21.883Z,75.47
2019-04-05T08:41:50.366Z,76.61
2019-04-05T08:44:18.809Z,75.40
2019-04-05T08:46:47.292Z,75.40
2019-04-05T08:49:15.768Z,75.50
2019-04-05T08:51:44.210Z,75.50
2019-04-05T08:54:12.683Z,75.61
2019-04-05T08:56:41.261Z,75.25
2019-04-05T08:59:09.723Z,75.08
2019-04-05T09:01:38.193Z,76.92
2019-04-05T09:04:06.641Z,76.92
2019-04-05T09:06:35.109Z,77.39
2019-04-05T09:09:05.638Z,77.39
2019-04-05T09:11:34.180Z,78.10
2019-04-05T09:14:02.617Z,76.33
2019-04-05T09:16:31.062Z,75.35
2019-04-05T09:18:59.543Z,75.35
2019-04-05T09:21:28.032Z,75.65
2019-04-05T09:23:59.084Z,76.45
2019-04-05T09:26:26.640Z,76.45
2019-04-05T09:28:55.099Z,75.45
2019-04-05T09:31:23.558Z,75.17
2019-04-05T09:33:51.986Z,75.17
2019-04-05T09:36:20.464Z,76.79
2019-04-05T09:38:49.766Z,77.63
2019-04-05T09:41:18.236Z,77.63
2019-04-05T09:43:46.707Z,78.04
2019-04-05T09:46:15.156Z,77.82
2019-04-05T09:48:43.598Z,77.82
2019-04-05T09:51:12.056Z,78.03
2019-04-05T09:53:40.525Z,78.03
2019-04-05T09:56:08.967Z,77.83
2019-04-05T09:58:37.782Z,76.84
2019-04-05T10:01:06.332Z,76.49
2019-04-05T10:03:34.810Z,77.00
2019-04-05T10:06:03.629Z,77.00
2019-04-05T10:08:32.063Z,76.41
2019-04-05T10:11:00.895Z,76.41
2019-04-05T10:13:29.360Z,76.50
2019-04-05T10:15:57.848Z,76.50
2019-04-05T10:18:26.336Z,76.17
2019-04-05T10:20:54.759Z,76.18
2019-04-05T10:23:23.227Z,76.18
2019-04-05T10:25:51.671Z,76.65
2019-04-05T10:28:20.105Z,75.72
2019-04-05T10:30:48.582Z,75.72
2019-04-05T10:33:17.035Z,75.64
2019-04-05T10:35:45.523Z,75.64
2019-04-05T10:38:13.958Z,75.51
2019-04-05T10:40:42.430Z,74.71
2019-04-05T10:43:11.173Z,74.33
2019-04-05T10:45:39.633Z,73.97
2019-04-05T10:48:08.093Z,74.36
2019-04-05T10:50:36.539Z,75.14
2019-04-05T10:53:05.061Z,73.99
2019-04-05T10:55:33.520Z,74.09
2019-04-05T10:58:02.005Z,73.74
2019-04-05T11:00:30.636Z,72.81
2019-04-05T11:02:59.083Z,72.72
2019-04-05T11:05:27.635Z,72.30
2019-04-05T11:07:56.109Z,72.62
2019-04-05T11:10:24.551Z,70.76
2019-04-05T11:12:53.045Z,70.76
2019-04-05T11:15:21.557Z,69.61
2019-04-05T11:17:50.191Z,68.71
2019-04-05T11:20:22.362Z,68.93
2019-04-05T11:22:50.079Z,69.87
2019-04-05T11:25:20.890Z,69.81
2019-04-05T11:27:49.655Z,69.14
2019-04-05T11:30:23.834Z,68.34
2019-04-05T11:32:52.269Z,67.77
2019-04-05T11:35:20.733Z,66.63
2019-04-05T11:37:50.651Z,66.02
2019-04-05T11:40:19.537Z,65.37
2019-04-05T11:42:49.552Z,64.96
2019-04-05T11:45:18.009Z,65.36
2019-04-05T11:47:47.080Z,65.42
2019-04-05T11:50:15.713Z,66.48
2019-04-05T11:52:44.203Z,65.89
2019-04-05T11:55:12.998Z,66.66
2019-04-05T11:57:42.046Z,64.90
2019-04-05T12:00:14.444Z,65.49
2019-04-05T12:02:44.575Z,65.65
2019-04-05T12:05:14.682Z,66.37
2019-04-05T12:07:43.162Z,65.72
2019-04-05T12:10:12.246Z,66.14
2019-04-05T12:12:40.767Z,67.93
2019-04-05T12:15:09.371Z,68.58
2019-04-05T12:17:37.908Z,67.46
2019-04-05T12:20:07.632Z,67.22
2019-04-05T12:22:36.064Z,65.22
2019-04-05T12:25:07.322Z,63.63
2019-04-05T12:27:36.229Z,63.87
2019-04-05T12:30:06.559Z,64.02
2019-04-05T12:32:41.080Z,63.72
2019-04-05T12:35:08.485Z,64.82
2019-04-05T12:37:49.626Z,63.52
2019-04-05T12:40:10.247Z,62.96
2019-04-05T12:42:38.273Z,64.02
2019-04-05T12:45:07.871Z,64.19
2019-04-05T12:47:36.429Z,64.62
2019-04-05T12:50:07.400Z,64.95
2019-04-05T12:52:35.968Z,64.39
2019-04-05T12:55:06.038Z,63.30
2019-04-05T12:57:34.548Z,63.18
2019-04-05T13:00:04.611Z,63.44
2019-04-05T13:02:34.079Z,62.96
2019-04-05T13:05:03.105Z,63.32
2019-04-05T13:07:34.791Z,62.97
2019-04-05T13:10:01.763Z,62.69
2019-04-05T13:12:30.250Z,61.84
2019-04-05T13:15:11.168Z,61.10
2019-04-05T13:17:31.055Z,61.41
2019-04-05T13:20:00.921Z,61.48
2019-04-05T13:22:32.203Z,61.52
2019-04-05T13:24:59.603Z,60.69
2019-04-05T13:27:28.092Z,61.99
2019-04-05T13:29:56.553Z,60.96
2019-04-05T13:32:25.151Z,60.53
2019-04-05T13:34:55.813Z,60.26
2019-04-05T13:37:23.886Z,61.00
2019-04-05T13:39:52.334Z,62.45
2019-04-05T13:42:20.789Z,62.24
2019-04-05T13:44:49.267Z,62.01
2019-04-05T13:47:17.764Z,61.64
2019-04-05T13:49:46.214Z,60.73
2019-04-05T13:52:14.654Z,60.74
2019-04-05T13:54:43.153Z,60.91
2019-04-05T13:57:11.718Z,60.37
2019-04-05T13:59:40.194Z,60.71
2019-04-05T14:02:08.657Z,61.58
2019-04-05T14:04:37.218Z,61.32
2019-04-05T14:07:06.309Z,60.52
2019-04-05T14:09:34.783Z,59.65
2019-04-05T14:12:04.058Z,58.95
2019-04-05T14:14:32.506Z,59.76
2019-04-05T14:17:00.994Z,60.39
2019-04-05T14:19:29.491Z,60.50
2019-04-05T14:22:07.777Z,61.07
2019-04-05T14:24:28.128Z,60.58
2019-04-05T14:26:56.673Z,59.76
2019-04-05T14:29:25.114Z,59.76
2019-04-05T14:31:53.593Z,60.63
2019-04-05T14:34:23.700Z,60.67
2019-04-05T14:36:52.444Z,60.62
2019-04-05T14:39:20.989Z,59.90
2019-04-05T14:41:49.433Z,60.55
2019-04-05T14:44:17.901Z,61.21
2019-04-05T14:46:46.348Z,60.53
2019-04-05T14:49:14.825Z,60.17
2019-04-05T14:51:52.405Z,59.65
2019-04-05T14:54:13.466Z,60.32
2019-04-05T14:56:41.921Z,60.76
2019-04-05T14:59:10.373Z,60.18
2019-04-05T15:01:38.918Z,59.36
2019-04-05T15:04:07.441Z,59.60
2019-04-05T15:06:35.944Z,59.66
2019-04-05T15:09:06.392Z,59.96
2019-04-05T15:11:34.877Z,59.22
2019-04-05T15:14:03.875Z,58.74
2019-04-05T15:16:32.335Z,59.78
2019-04-05T15:19:00.797Z,59.60
2019-04-05T15:21:29.281Z,59.07
2019-04-05T15:23:57.754Z,59.09
2019-04-05T15:26:26.239Z,59.00
2019-04-05T15:28:55.704Z,58.48
2019-04-05T15:31:26.502Z,58.79
2019-04-05T15:33:55.591Z,58.75
2019-04-05T15:36:24.646Z,59.46
2019-04-05T15:38:53.146Z,59.26
2019-04-05T15:41:22.012Z,59.57
2019-04-05T15:43:50.562Z,60.19
2019-04-05T15:46:19.183Z,60.97
2019-04-05T15:48:49.654Z,61.01
2019-04-05T15:51:17.875Z,61.95
2019-04-05T15:53:46.342Z,61.69
2019-04-05T15:56:14.824Z,61.04
2019-04-05T15:58:43.273Z,60.73
2019-04-05T16:01:11.948Z,60.83
2019-04-05T16:03:40.419Z,60.86
2019-04-05T16:06:08.932Z,60.78
2019-04-05T16:08:37.545Z,60.88
2019-04-05T16:11:06.079Z,61.31
2019-04-05T16:13:34.531Z,61.02
2019-04-05T16:16:03.003Z,60.23
2019-04-05T16:18:31.456Z,60.50
2019-04-05T16:20:59.981Z,60.65
2019-04-05T16:23:28.478Z,61.20
2019-04-05T16:25:56.943Z,60.49
2019-04-05T16:28:25.433Z,60.42
2019-04-05T16:30:53.900Z,60.03
2019-04-05T16:33:22.376Z,60.36
2019-04-05T16:35:50.936Z,60.64
2019-04-05T16:38:19.440Z,60.78
2019-04-05T16:40:47.886Z,60.81
2019-04-05T16:43:16.362Z,60.96
2019-04-05T16:45:44.825Z,61.11
2019-04-05T16:48:13.323Z,61.12
2019-04-05T16:50:42.423Z,60.87
2019-04-05T16:53:11.023Z,61.27
2019-04-05T16:55:39.498Z,61.43
2019-04-05T16:58:07.973Z,61.77
2019-04-05T17:00:36.451Z,61.79
2019-04-05T17:03:04.903Z,62.08
2019-04-05T17:05:33.347Z,61.96
2019-04-05T17:08:01.830Z,62.05
2019-04-05T17:10:30.293Z,62.54
2019-04-05T17:12:58.793Z,62.25
2019-04-05T17:15:27.256Z,62.77
2019-04-05T17:17:55.749Z,63.00
2019-04-05T17:20:24.239Z,63.07
2019-04-05T17:22:58.497Z,63.54
2019-04-05T17:25:22.897Z,63.40
2019-04-05T17:27:51.346Z,63.72
2019-04-05T17:30:19.816Z,63.90
2019-04-05T17:32:48.936Z,64.29
2019-04-05T17:35:18.178Z,64.71
2019-04-05T17:37:46.816Z,64.95
2019-04-05T17:40:15.610Z,64.46
2019-04-05T17:42:44.108Z,64.90
2019-04-05T17:45:12.822Z,64.95
2019-04-05T17:47:41.287Z,65.23
2019-04-05T17:50:12.808Z,65.51
2019-04-05T17:52:41.323Z,65.59
2019-04-05T17:55:09.899Z,65.79
2019-04-05T17:57:38.321Z,65.35
2019-04-05T18:00:09.565Z,65.71
2019-04-05T18:02:38.110Z,65.83
2019-04-05T18:05:07.492Z,66.11
2019-04-05T18:07:35.961Z,66.02
2019-04-05T18:10:05.772Z,66.11
2019-04-05T18:12:34.269Z,66.41
2019-04-05T18:15:02.743Z,66.70
2019-04-05T18:17:31.333Z,67.09
2019-04-05T18:19:59.775Z,67.06
2019-04-05T18:22:28.604Z,67.36
2019-04-05T18:24:57.049Z,67.96
2019-04-05T18:27:25.570Z,67.93
2019-04-05T18:29:54.069Z,67.99
2019-04-05T18:32:22.650Z,68.14
2019-04-05T18:34:51.095Z,68.15
2019-04-05T18:37:19.545Z,68.53
2019-04-05T18:39:48.054Z,68.24
2019-04-05T18:42:16.642Z,68.42
2019-04-05T18:44:45.304Z,68.53
2019-04-05T18:47:13.771Z,68.95
2019-04-05T18:49:42.264Z,68.80
2019-04-05T18:52:10.706Z,68.89
2019-04-05T18:54:39.142Z,69.00
2019-04-05T18:57:07.638Z,69.25
2019-04-05T18:59:36.082Z,69.21
2019-04-05T19:02:04.599Z,69.37
2019-04-05T19:04:33.091Z,70.61
2019-04-05T19:07:01.523Z,70.61
2019-04-05T19:09:29.976Z,70.53
2019-04-05T19:11:58.452Z,70.84
2019-04-05T19:14:26.896Z,70.57
2019-04-05T19:16:55.365Z,71.29
2019-04-05T19:19:23.844Z,71.68
2019-04-05T19:21:52.346Z,71.68
2019-04-05T19:24:20.777Z,71.68
2019-04-05T19:26:49.222Z,72.28
2019-04-05T19:29:17.705Z,72.28
2019-04-05T19:49:17.521Z,72.05
2019-04-05T19:51:45.983Z,72.05
2019-04-05T19:54:14.479Z,72.65
2019-04-05T19:56:42.937Z,72.88
2019-04-05T19:59:11.407Z,72.80
2019-04-05T20:01:39.889Z,73.01
2019-04-05T20:04:08.338Z,73.42
2019-04-05T20:06:36.784Z,73.49
2019-04-05T20:09:07.309Z,73.80
2019-04-05T20:11:35.758Z,73.50
2019-04-05T20:14:04.300Z,73.51
2019-04-05T20:16:32.787Z,73.73
2019-04-05T20:19:01.183Z,73.41
2019-04-05T20:21:29.663Z,73.07
2019-04-05T20:23:58.132Z,73.17
2019-04-05T20:26:26.624Z,73.60
2019-04-05T20:28:55.069Z,73.83
2019-04-05T20:31:23.508Z,73.93
2019-04-05T20:33:52.026Z,73.81
2019-04-05T20:36:20.469Z,74.02
2019-04-05T20:38:48.928Z,74.02
2019-04-05T20:41:17.371Z,74.31
2019-04-05T20:43:45.852Z,74.46
2019-04-05T20:46:14.295Z,74.20
2019-04-05T20:48:42.757Z,74.24
2019-04-05T20:51:11.230Z,74.65
2019-04-05T20:53:39.671Z,74.36
2019-04-05T20:56:08.157Z,74.40
2019-04-05T20:58:36.626Z,74.38
2019-04-05T21:01:05.090Z,74.56
2019-04-05T21:03:33.560Z,74.58
2019-04-05T21:06:02.047Z,74.30
2019-04-05T21:08:30.479Z,74.60
2019-04-05T21:10:58.963Z,74.05
2019-04-05T21:13:27.452Z,73.76
2019-04-05T21:15:55.901Z,74.28
2019-04-05T21:18:24.378Z,74.31
2019-04-05T21:20:52.941Z,74.46
2019-04-05T21:23:21.368Z,74.31
2019-04-05T21:25:49.868Z,74.45
2019-04-05T21:28:18.353Z,74.79
2019-04-05T21:30:46.784Z,74.71
2019-04-05T21:33:15.251Z,74.68
2019-04-05T21:35:45.788Z,74.82
2019-04-05T21:38:13.845Z,75.21
2019-04-05T21:40:42.330Z,75.76
2019-04-05T21:43:10.770Z,75.36
2019-04-05T21:45:39.222Z,75.88
2019-04-05T21:48:07.723Z,75.97
2019-04-05T21:50:36.167Z,75.73
2019-04-05T21:53:04.609Z,75.85
2019-04-05T21:55:33.089Z,75.68
2019-04-05T21:58:01.554Z,75.59
2019-04-05T22:00:51.435Z,76.39
2019-04-05T22:03:19.864Z,76.49
2019-04-05T22:05:48.334Z,76.52
2019-04-05T22:08:16.836Z,77.16
2019-04-05T22:10:45.238Z,77.10
2019-04-05T22:13:13.709Z,77.26
2019-04-05T22:15:42.156Z,77.52
2019-04-05T22:18:10.610Z,77.67
2019-04-05T22:20:39.064Z,77.67
2019-04-05T22:23:07.525Z,77.77
2019-04-05T22:25:35.969Z,78.08
2019-04-05T22:28:04.448Z,77.91
2019-04-05T22:30:32.906Z,77.64
2019-04-05T22:33:01.370Z,77.84
2019-04-05T22:35:29.805Z,78.12
2019-04-05T22:37:58.244Z,78.12
2019-04-05T22:40:26.710Z,78.78
2019-04-05T22:42:55.189Z,78.89
2019-04-05T22:45:23.630Z,78.89
2019-04-05T22:47:52.074Z,78.29
2019-04-05T22:50:20.540Z,78.26
2019-04-05T22:52:49.016Z,78.26
2019-04-05T22:55:17.464Z,77.97
2019-04-05T22:57:45.973Z,77.96
2019-04-05T23:00:14.564Z,78.24
2019-04-05T23:02:43.034Z,77.62
2019-04-05T23:05:11.783Z,77.22
2019-04-05T23:07:40.260Z,77.16
2019-04-05T23:10:10.094Z,77.72
2019-04-05T23:12:38.530Z,77.74
2019-04-05T23:15:08.840Z,77.29
2019-04-05T23:17:37.318Z,77.23
2019-04-05T23:20:06.662Z,77.22
2019-04-05T23:22:35.137Z,77.38
2019-04-05T23:25:04.761Z,77.67
2019-04-05T23:27:33.244Z,78.13
2019-04-05T23:30:01.762Z,77.49
2019-04-05T23:32:30.222Z,77.91
2019-04-05T23:34:58.724Z,78.50
2019-04-05T23:37:27.157Z,78.60
2019-04-05T23:39:55.621Z,78.60
2019-04-05T23:42:24.096Z,78.96
2019-04-05T23:44:52.534Z,78.96
2019-04-05T23:47:21.173Z,79.49
2019-04-05T23:49:49.633Z,78.49
2019-04-05T23:52:18.138Z,78.21
2019-04-05T23:54:46.557Z,77.80
2019-04-05T23:57:15.032Z,77.71
2019-04-05T23:59:43.501Z,77.52
